sensor_id;sensor_type;location;lat;lon;timestamp;temperature;humidity
17607;DHT22;8922;52.240;20.980;2022-07-23T00:01:21;25.20;81.70
17607;DHT22;8922;52.240;20.980;2022-07-23T00:03:48;25.10;81.80
17607;DHT22;8922;52.240;20.980;2022-07-23T00:06:15;25.20;81.90
17607;DHT22;8922;52.240;20.980;2022-07-23T00:08:42;25.10;82.00
17607;DHT22;8922;52.240;20.980;2022-07-23T00:11:09;25.10;82.20
17607;DHT22;8922;52.240;20.980;2022-07-23T00:13:36;25.00;82.10
17607;DHT22;8922;52.240;20.980;2022-07-23T00:16:05;25.00;82.20
17607;DHT22;8922;52.240;20.980;2022-07-23T00:18:32;25.10;82.30
17607;DHT22;8922;52.240;20.980;2022-07-23T00:20:58;25.00;82.50
17607;DHT22;8922;52.240;20.980;2022-07-23T00:23:25;25.00;82.90
17607;DHT22;8922;52.240;20.980;2022-07-23T00:25:52;25.00;83.00
17607;DHT22;8922;52.240;20.980;2022-07-23T00:28:19;25.00;83.10
17607;DHT22;8922;52.240;20.980;2022-07-23T00:30:46;25.00;83.20
17607;DHT22;8922;52.240;20.980;2022-07-23T00:33:14;25.00;83.30
17607;DHT22;8922;52.240;20.980;2022-07-23T00:35:42;25.00;83.50
17607;DHT22;8922;52.240;20.980;2022-07-23T00:38:10;25.00;83.70
17607;DHT22;8922;52.240;20.980;2022-07-23T00:40:37;25.00;83.60
17607;DHT22;8922;52.240;20.980;2022-07-23T00:43:07;25.00;84.60
17607;DHT22;8922;52.240;20.980;2022-07-23T00:45:34;24.90;83.70
17607;DHT22;8922;52.240;20.980;2022-07-23T00:48:01;24.90;84.00
17607;DHT22;8922;52.240;20.980;2022-07-23T00:50:29;24.90;84.20
17607;DHT22;8922;52.240;20.980;2022-07-23T00:52:56;24.90;84.30
17607;DHT22;8922;52.240;20.980;2022-07-23T00:55:23;24.90;84.40
17607;DHT22;8922;52.240;20.980;2022-07-23T00:57:50;24.80;84.30
17607;DHT22;8922;52.240;20.980;2022-07-23T01:00:17;24.90;84.70
17607;DHT22;8922;52.240;20.980;2022-07-23T01:02:44;24.80;84.70
17607;DHT22;8922;52.240;20.980;2022-07-23T01:05:12;24.80;84.70
17607;DHT22;8922;52.240;20.980;2022-07-23T01:07:40;24.80;84.80
17607;DHT22;8922;52.240;20.980;2022-07-23T01:10:08;24.80;85.10
17607;DHT22;8922;52.240;20.980;2022-07-23T01:12:48;24.70;85.10
17607;DHT22;8922;52.240;20.980;2022-07-23T01:15:15;24.70;85.50
17607;DHT22;8922;52.240;20.980;2022-07-23T01:17:42;24.70;85.70
17607;DHT22;8922;52.240;20.980;2022-07-23T01:20:09;24.60;85.70
17607;DHT22;8922;52.240;20.980;2022-07-23T01:22:37;24.60;85.80
17607;DHT22;8922;52.240;20.980;2022-07-23T01:25:05;24.70;86.00
17607;DHT22;8922;52.240;20.980;2022-07-23T01:27:32;24.60;86.10
17607;DHT22;8922;52.240;20.980;2022-07-23T01:30:00;24.60;86.20
17607;DHT22;8922;52.240;20.980;2022-07-23T01:32:27;24.50;86.30
17607;DHT22;8922;52.240;20.980;2022-07-23T01:34:54;24.60;86.60
17607;DHT22;8922;52.240;20.980;2022-07-23T01:37:20;24.50;86.50
17607;DHT22;8922;52.240;20.980;2022-07-23T01:39:48;24.50;86.60
17607;DHT22;8922;52.240;20.980;2022-07-23T01:42:15;24.50;87.40
17607;DHT22;8922;52.240;20.980;2022-07-23T01:44:42;24.40;86.60
17607;DHT22;8922;52.240;20.980;2022-07-23T01:47:09;24.40;86.90
17607;DHT22;8922;52.240;20.980;2022-07-23T01:49:36;24.40;87.00
17607;DHT22;8922;52.240;20.980;2022-07-23T01:52:02;24.30;87.30
17607;DHT22;8922;52.240;20.980;2022-07-23T01:54:33;24.30;87.30
17607;DHT22;8922;52.240;20.980;2022-07-23T01:57:01;24.30;87.40
17607;DHT22;8922;52.240;20.980;2022-07-23T01:59:28;24.30;87.40
17607;DHT22;8922;52.240;20.980;2022-07-23T02:01:55;24.30;87.40
17607;DHT22;8922;52.240;20.980;2022-07-23T02:04:24;24.20;87.40
17607;DHT22;8922;52.240;20.980;2022-07-23T02:06:51;24.20;87.50
17607;DHT22;8922;52.240;20.980;2022-07-23T02:09:18;24.20;87.70
17607;DHT22;8922;52.240;20.980;2022-07-23T02:11:45;24.10;87.90
17607;DHT22;8922;52.240;20.980;2022-07-23T02:14:13;24.00;88.00
17607;DHT22;8922;52.240;20.980;2022-07-23T02:16:40;24.00;88.40
17607;DHT22;8922;52.240;20.980;2022-07-23T02:19:06;23.80;88.60
17607;DHT22;8922;52.240;20.980;2022-07-23T02:21:33;23.80;89.40
17607;DHT22;8922;52.240;20.980;2022-07-23T02:24:00;23.70;89.60
17607;DHT22;8922;52.240;20.980;2022-07-23T02:26:27;23.60;90.00
17607;DHT22;8922;52.240;20.980;2022-07-23T02:28:53;23.60;90.20
17607;DHT22;8922;52.240;20.980;2022-07-23T02:31:21;23.60;90.30
17607;DHT22;8922;52.240;20.980;2022-07-23T02:33:48;23.60;90.50
17607;DHT22;8922;52.240;20.980;2022-07-23T02:36:15;23.50;90.50
17607;DHT22;8922;52.240;20.980;2022-07-23T02:38:42;23.50;90.70
17607;DHT22;8922;52.240;20.980;2022-07-23T02:41:09;23.40;90.70
17607;DHT22;8922;52.240;20.980;2022-07-23T02:43:35;23.40;90.80
17607;DHT22;8922;52.240;20.980;2022-07-23T02:46:02;23.20;90.90
17607;DHT22;8922;52.240;20.980;2022-07-23T02:48:30;23.30;91.10
17607;DHT22;8922;52.240;20.980;2022-07-23T02:50:57;23.20;91.20
17607;DHT22;8922;52.240;20.980;2022-07-23T02:53:24;23.20;91.40
17607;DHT22;8922;52.240;20.980;2022-07-23T02:55:51;23.10;91.40
17607;DHT22;8922;52.240;20.980;2022-07-23T02:58:18;23.10;91.60
17607;DHT22;8922;52.240;20.980;2022-07-23T03:00:45;23.00;91.60
17607;DHT22;8922;52.240;20.980;2022-07-23T03:03:12;23.00;91.70
17607;DHT22;8922;52.240;20.980;2022-07-23T03:05:40;23.00;92.10
17607;DHT22;8922;52.240;20.980;2022-07-23T03:08:06;23.00;91.90
17607;DHT22;8922;52.240;20.980;2022-07-23T03:10:33;23.00;92.00
17607;DHT22;8922;52.240;20.980;2022-07-23T03:13:00;23.00;92.10
17607;DHT22;8922;52.240;20.980;2022-07-23T03:15:27;23.00;92.10
17607;DHT22;8922;52.240;20.980;2022-07-23T03:17:53;23.00;92.20
17607;DHT22;8922;52.240;20.980;2022-07-23T03:20:20;23.00;92.30
17607;DHT22;8922;52.240;20.980;2022-07-23T03:22:48;23.00;92.30
17607;DHT22;8922;52.240;20.980;2022-07-23T03:25:15;23.00;92.30
17607;DHT22;8922;52.240;20.980;2022-07-23T03:27:42;23.00;92.40
17607;DHT22;8922;52.240;20.980;2022-07-23T03:30:11;23.00;92.40
17607;DHT22;8922;52.240;20.980;2022-07-23T03:32:38;23.00;92.50
17607;DHT22;8922;52.240;20.980;2022-07-23T03:35:06;23.00;92.50
17607;DHT22;8922;52.240;20.980;2022-07-23T03:37:32;23.00;92.60
17607;DHT22;8922;52.240;20.980;2022-07-23T03:40:01;23.10;92.70
17607;DHT22;8922;52.240;20.980;2022-07-23T03:42:27;23.10;92.70
17607;DHT22;8922;52.240;20.980;2022-07-23T03:44:54;23.00;92.70
17607;DHT22;8922;52.240;20.980;2022-07-23T03:47:21;23.00;92.80
17607;DHT22;8922;52.240;20.980;2022-07-23T03:49:49;23.00;93.00
17607;DHT22;8922;52.240;20.980;2022-07-23T03:52:16;23.00;93.10
17607;DHT22;8922;52.240;20.980;2022-07-23T03:54:42;23.00;93.00
17607;DHT22;8922;52.240;20.980;2022-07-23T03:57:10;23.00;93.10
17607;DHT22;8922;52.240;20.980;2022-07-23T03:59:37;23.00;93.10
17607;DHT22;8922;52.240;20.980;2022-07-23T04:02:04;23.10;93.20
17607;DHT22;8922;52.240;20.980;2022-07-23T04:04:31;23.10;93.30
17607;DHT22;8922;52.240;20.980;2022-07-23T04:06:57;23.00;93.40
17607;DHT22;8922;52.240;20.980;2022-07-23T04:09:24;23.00;93.40
17607;DHT22;8922;52.240;20.980;2022-07-23T04:11:51;23.00;93.50
17607;DHT22;8922;52.240;20.980;2022-07-23T04:14:19;23.00;93.60
17607;DHT22;8922;52.240;20.980;2022-07-23T04:16:46;23.10;93.70
17607;DHT22;8922;52.240;20.980;2022-07-23T04:19:12;23.10;93.60
17607;DHT22;8922;52.240;20.980;2022-07-23T04:21:39;23.10;93.70
17607;DHT22;8922;52.240;20.980;2022-07-23T04:24:06;23.10;93.60
17607;DHT22;8922;52.240;20.980;2022-07-23T04:26:33;23.10;93.70
17607;DHT22;8922;52.240;20.980;2022-07-23T04:29:00;23.10;93.90
17607;DHT22;8922;52.240;20.980;2022-07-23T04:31:28;23.20;93.90
17607;DHT22;8922;52.240;20.980;2022-07-23T04:33:55;23.30;93.80
17607;DHT22;8922;52.240;20.980;2022-07-23T04:36:21;23.40;93.70
17607;DHT22;8922;52.240;20.980;2022-07-23T04:38:48;23.30;93.50
17607;DHT22;8922;52.240;20.980;2022-07-23T04:41:15;23.40;93.60
17607;DHT22;8922;52.240;20.980;2022-07-23T04:43:42;23.50;93.60
17607;DHT22;8922;52.240;20.980;2022-07-23T04:46:08;23.50;93.40
17607;DHT22;8922;52.240;20.980;2022-07-23T04:48:37;23.60;93.50
17607;DHT22;8922;52.240;20.980;2022-07-23T04:51:04;23.60;93.30
17607;DHT22;8922;52.240;20.980;2022-07-23T04:53:31;23.60;93.20
17607;DHT22;8922;52.240;20.980;2022-07-23T04:55:58;23.70;93.30
17607;DHT22;8922;52.240;20.980;2022-07-23T04:58:25;23.80;93.40
17607;DHT22;8922;52.240;20.980;2022-07-23T05:00:51;23.80;93.10
17607;DHT22;8922;52.240;20.980;2022-07-23T05:03:18;23.90;93.20
17607;DHT22;8922;52.240;20.980;2022-07-23T05:05:46;23.90;93.50
17607;DHT22;8922;52.240;20.980;2022-07-23T05:08:13;24.00;93.10
17607;DHT22;8922;52.240;20.980;2022-07-23T05:10:40;24.00;92.90
17607;DHT22;8922;52.240;20.980;2022-07-23T05:13:07;24.00;92.80
17607;DHT22;8922;52.240;20.980;2022-07-23T05:15:34;24.10;92.80
17607;DHT22;8922;52.240;20.980;2022-07-23T05:18:00;24.20;92.90
17607;DHT22;8922;52.240;20.980;2022-07-23T05:20:27;24.30;92.80
17607;DHT22;8922;52.240;20.980;2022-07-23T05:22:55;24.30;92.70
17607;DHT22;8922;52.240;20.980;2022-07-23T05:25:22;24.40;92.60
17607;DHT22;8922;52.240;20.980;2022-07-23T05:27:49;24.50;92.60
17607;DHT22;8922;52.240;20.980;2022-07-23T05:30:15;24.60;92.50
17607;DHT22;8922;52.240;20.980;2022-07-23T05:32:42;24.60;92.40
17607;DHT22;8922;52.240;20.980;2022-07-23T05:35:09;24.60;92.40
17607;DHT22;8922;52.240;20.980;2022-07-23T05:37:36;24.80;92.30
17607;DHT22;8922;52.240;20.980;2022-07-23T05:40:06;25.00;92.10
17607;DHT22;8922;52.240;20.980;2022-07-23T05:42:34;25.00;91.80
17607;DHT22;8922;52.240;20.980;2022-07-23T05:45:01;25.10;91.70
17607;DHT22;8922;52.240;20.980;2022-07-23T05:47:28;25.20;91.50
17607;DHT22;8922;52.240;20.980;2022-07-23T05:49:55;25.30;91.50
17607;DHT22;8922;52.240;20.980;2022-07-23T05:52:22;25.40;91.40
17607;DHT22;8922;52.240;20.980;2022-07-23T05:54:49;25.50;91.20
17607;DHT22;8922;52.240;20.980;2022-07-23T05:57:17;25.50;91.10
17607;DHT22;8922;52.240;20.980;2022-07-23T05:59:43;25.50;91.00
17607;DHT22;8922;52.240;20.980;2022-07-23T06:02:10;25.60;91.00
17607;DHT22;8922;52.240;20.980;2022-07-23T06:04:37;25.70;90.90
17607;DHT22;8922;52.240;20.980;2022-07-23T06:07:04;25.80;90.90
17607;DHT22;8922;52.240;20.980;2022-07-23T06:09:30;25.80;90.90
17607;DHT22;8922;52.240;20.980;2022-07-23T06:11:57;26.00;90.60
17607;DHT22;8922;52.240;20.980;2022-07-23T06:14:25;26.00;90.60
17607;DHT22;8922;52.240;20.980;2022-07-23T06:16:52;26.10;90.50
17607;DHT22;8922;52.240;20.980;2022-07-23T06:19:19;26.20;90.40
17607;DHT22;8922;52.240;20.980;2022-07-23T06:21:46;26.30;90.30
17607;DHT22;8922;52.240;20.980;2022-07-23T06:24:12;26.50;90.30
17607;DHT22;8922;52.240;20.980;2022-07-23T06:26:39;26.50;90.10
17607;DHT22;8922;52.240;20.980;2022-07-23T06:29:06;26.60;90.00
17607;DHT22;8922;52.240;20.980;2022-07-23T06:31:34;26.70;89.50
17607;DHT22;8922;52.240;20.980;2022-07-23T06:34:01;26.80;89.50
17607;DHT22;8922;52.240;20.980;2022-07-23T06:36:28;26.90;89.60
17607;DHT22;8922;52.240;20.980;2022-07-23T06:38:55;27.00;89.10
17607;DHT22;8922;52.240;20.980;2022-07-23T06:41:22;27.10;88.50
17607;DHT22;8922;52.240;20.980;2022-07-23T06:43:49;27.20;88.00
17607;DHT22;8922;52.240;20.980;2022-07-23T06:46:16;27.20;87.20
17607;DHT22;8922;52.240;20.980;2022-07-23T06:48:44;27.30;86.80
17607;DHT22;8922;52.240;20.980;2022-07-23T06:51:11;27.30;85.90
17607;DHT22;8922;52.240;20.980;2022-07-23T06:53:38;27.30;85.10
17607;DHT22;8922;52.240;20.980;2022-07-23T06:56:04;27.40;84.60
17607;DHT22;8922;52.240;20.980;2022-07-23T06:58:32;27.40;84.40
17607;DHT22;8922;52.240;20.980;2022-07-23T07:00:58;27.40;84.60
17607;DHT22;8922;52.240;20.980;2022-07-23T07:03:25;27.50;84.90
17607;DHT22;8922;52.240;20.980;2022-07-23T07:05:53;27.50;84.90
17607;DHT22;8922;52.240;20.980;2022-07-23T07:08:22;27.60;84.80
17607;DHT22;8922;52.240;20.980;2022-07-23T07:10:49;27.70;84.60
17607;DHT22;8922;52.240;20.980;2022-07-23T07:13:16;27.70;84.30
17607;DHT22;8922;52.240;20.980;2022-07-23T07:15:43;27.90;83.90
17607;DHT22;8922;52.240;20.980;2022-07-23T07:18:10;28.00;83.40
17607;DHT22;8922;52.240;20.980;2022-07-23T07:20:36;28.10;82.90
17607;DHT22;8922;52.240;20.980;2022-07-23T07:23:04;28.10;82.70
17607;DHT22;8922;52.240;20.980;2022-07-23T07:25:31;28.20;82.50
17607;DHT22;8922;52.240;20.980;2022-07-23T07:27:58;28.30;82.10
17607;DHT22;8922;52.240;20.980;2022-07-23T07:30:25;28.30;81.30
17607;DHT22;8922;52.240;20.980;2022-07-23T07:32:52;28.40;80.80
17607;DHT22;8922;52.240;20.980;2022-07-23T07:35:19;28.50;80.10
17607;DHT22;8922;52.240;20.980;2022-07-23T07:37:45;28.50;79.70
17607;DHT22;8922;52.240;20.980;2022-07-23T07:40:13;28.60;79.30
17607;DHT22;8922;52.240;20.980;2022-07-23T07:42:46;28.70;78.80
17607;DHT22;8922;52.240;20.980;2022-07-23T07:45:13;28.70;78.50
17607;DHT22;8922;52.240;20.980;2022-07-23T07:47:41;28.80;78.60
17607;DHT22;8922;52.240;20.980;2022-07-23T07:50:08;28.90;78.30
17607;DHT22;8922;52.240;20.980;2022-07-23T07:52:36;29.00;78.00
17607;DHT22;8922;52.240;20.980;2022-07-23T07:55:04;29.10;77.60
17607;DHT22;8922;52.240;20.980;2022-07-23T07:57:33;29.10;76.70
17607;DHT22;8922;52.240;20.980;2022-07-23T07:59:59;29.10;75.90
17607;DHT22;8922;52.240;20.980;2022-07-23T08:02:28;29.20;76.50
17607;DHT22;8922;52.240;20.980;2022-07-23T08:04:55;29.30;76.40
17607;DHT22;8922;52.240;20.980;2022-07-23T08:07:22;29.30;76.60
17607;DHT22;8922;52.240;20.980;2022-07-23T08:09:49;29.40;76.30
17607;DHT22;8922;52.240;20.980;2022-07-23T08:12:16;29.50;76.20
17607;DHT22;8922;52.240;20.980;2022-07-23T08:14:44;29.60;76.20
17607;DHT22;8922;52.240;20.980;2022-07-23T08:17:11;29.70;76.00
17607;DHT22;8922;52.240;20.980;2022-07-23T08:19:37;29.70;75.60
17607;DHT22;8922;52.240;20.980;2022-07-23T08:22:04;29.90;75.20
17607;DHT22;8922;52.240;20.980;2022-07-23T08:24:31;29.90;74.90
17607;DHT22;8922;52.240;20.980;2022-07-23T08:26:58;30.10;74.50
17607;DHT22;8922;52.240;20.980;2022-07-23T08:29:24;30.10;73.50
17607;DHT22;8922;52.240;20.980;2022-07-23T08:31:53;30.10;73.60
17607;DHT22;8922;52.240;20.980;2022-07-23T08:34:20;30.20;73.80
17607;DHT22;8922;52.240;20.980;2022-07-23T08:36:47;30.20;72.90
17607;DHT22;8922;52.240;20.980;2022-07-23T08:39:13;30.40;72.60
17607;DHT22;8922;52.240;20.980;2022-07-23T08:41:42;30.60;72.20
17607;DHT22;8922;52.240;20.980;2022-07-23T08:44:09;30.60;71.40
17607;DHT22;8922;52.240;20.980;2022-07-23T08:46:36;30.60;70.60
17607;DHT22;8922;52.240;20.980;2022-07-23T08:49:06;30.60;70.10
17607;DHT22;8922;52.240;20.980;2022-07-23T08:51:33;30.60;70.10
17607;DHT22;8922;52.240;20.980;2022-07-23T08:54:00;30.70;70.30
17607;DHT22;8922;52.240;20.980;2022-07-23T08:56:27;30.80;69.60
17607;DHT22;8922;52.240;20.980;2022-07-23T08:58:54;30.80;69.50
17607;DHT22;8922;52.240;20.980;2022-07-23T09:01:21;31.00;69.60
17607;DHT22;8922;52.240;20.980;2022-07-23T09:03:48;31.20;69.30
17607;DHT22;8922;52.240;20.980;2022-07-23T09:06:16;31.30;69.00
17607;DHT22;8922;52.240;20.980;2022-07-23T09:08:44;31.40;68.40
17607;DHT22;8922;52.240;20.980;2022-07-23T09:11:15;31.40;68.00
17607;DHT22;8922;52.240;20.980;2022-07-23T09:13:46;31.50;67.50
17607;DHT22;8922;52.240;20.980;2022-07-23T09:16:16;31.60;67.60
17607;DHT22;8922;52.240;20.980;2022-07-23T09:18:47;31.80;67.40
17607;DHT22;8922;52.240;20.980;2022-07-23T09:21:22;32.00;68.00
17607;DHT22;8922;52.240;20.980;2022-07-23T09:23:55;32.20;66.40
17607;DHT22;8922;52.240;20.980;2022-07-23T09:26:28;32.40;65.10
17607;DHT22;8922;52.240;20.980;2022-07-23T09:28:59;32.40;63.90
17607;DHT22;8922;52.240;20.980;2022-07-23T09:31:31;32.50;61.60
17607;DHT22;8922;52.240;20.980;2022-07-23T09:34:07;32.60;61.70
17607;DHT22;8922;52.240;20.980;2022-07-23T09:36:35;32.70;62.20
17607;DHT22;8922;52.240;20.980;2022-07-23T09:39:03;32.80;62.60
17607;DHT22;8922;52.240;20.980;2022-07-23T09:41:37;32.90;62.10
17607;DHT22;8922;52.240;20.980;2022-07-23T09:44:13;33.10;61.70
17607;DHT22;8922;52.240;20.980;2022-07-23T09:46:41;33.20;60.30
17607;DHT22;8922;52.240;20.980;2022-07-23T09:49:14;33.30;58.80
17607;DHT22;8922;52.240;20.980;2022-07-23T09:51:51;33.30;58.80
17607;DHT22;8922;52.240;20.980;2022-07-23T09:54:32;33.30;57.90
17607;DHT22;8922;52.240;20.980;2022-07-23T09:57:03;33.40;57.30
17607;DHT22;8922;52.240;20.980;2022-07-23T09:59:33;33.40;57.50
17607;DHT22;8922;52.240;20.980;2022-07-23T10:02:00;33.70;56.60
17607;DHT22;8922;52.240;20.980;2022-07-23T10:04:28;33.70;56.50
17607;DHT22;8922;52.240;20.980;2022-07-23T10:06:58;33.90;56.50
17607;DHT22;8922;52.240;20.980;2022-07-23T10:09:27;34.10;55.70
17607;DHT22;8922;52.240;20.980;2022-07-23T10:11:56;34.20;54.70
17607;DHT22;8922;52.240;20.980;2022-07-23T10:14:38;34.30;55.00
17607;DHT22;8922;52.240;20.980;2022-07-23T10:17:06;34.40;53.90
17607;DHT22;8922;52.240;20.980;2022-07-23T10:19:34;34.50;53.10
17607;DHT22;8922;52.240;20.980;2022-07-23T10:22:03;34.50;52.90
17607;DHT22;8922;52.240;20.980;2022-07-23T10:24:42;34.60;53.70
17607;DHT22;8922;52.240;20.980;2022-07-23T10:27:48;34.70;53.40
17607;DHT22;8922;52.240;20.980;2022-07-23T10:30:22;35.00;53.50
17607;DHT22;8922;52.240;20.980;2022-07-23T10:33:00;35.30;53.00
17607;DHT22;8922;52.240;20.980;2022-07-23T10:35:36;35.40;52.50
17607;DHT22;8922;52.240;20.980;2022-07-23T10:38:13;35.50;52.70
17607;DHT22;8922;52.240;20.980;2022-07-23T10:40:53;35.60;53.00
17607;DHT22;8922;52.240;20.980;2022-07-23T10:43:21;35.70;52.60
17607;DHT22;8922;52.240;20.980;2022-07-23T10:45:48;35.80;52.00
17607;DHT22;8922;52.240;20.980;2022-07-23T10:48:17;36.00;51.70
17607;DHT22;8922;52.240;20.980;2022-07-23T10:51:06;36.20;51.30
17607;DHT22;8922;52.240;20.980;2022-07-23T10:53:55;36.30;50.70
17607;DHT22;8922;52.240;20.980;2022-07-23T10:56:51;36.20;50.30
17607;DHT22;8922;52.240;20.980;2022-07-23T10:59:31;36.30;50.20
17607;DHT22;8922;52.240;20.980;2022-07-23T11:02:22;36.30;50.30
17607;DHT22;8922;52.240;20.980;2022-07-23T11:04:50;36.20;50.60
17607;DHT22;8922;52.240;20.980;2022-07-23T11:07:17;36.20;51.00
17607;DHT22;8922;52.240;20.980;2022-07-23T11:09:45;36.20;51.50
17607;DHT22;8922;52.240;20.980;2022-07-23T11:12:32;36.00;50.80
17607;DHT22;8922;52.240;20.980;2022-07-23T11:15:02;35.90;50.60
17607;DHT22;8922;52.240;20.980;2022-07-23T11:17:29;36.10;50.70
17607;DHT22;8922;52.240;20.980;2022-07-23T11:20:19;36.20;50.00
17607;DHT22;8922;52.240;20.980;2022-07-23T11:22:51;36.40;49.70
17607;DHT22;8922;52.240;20.980;2022-07-23T11:25:37;36.40;49.30
17607;DHT22;8922;52.240;20.980;2022-07-23T11:28:13;36.30;49.80
17607;DHT22;8922;52.240;20.980;2022-07-23T11:30:42;36.40;50.00
17607;DHT22;8922;52.240;20.980;2022-07-23T11:33:21;36.50;50.00
17607;DHT22;8922;52.240;20.980;2022-07-23T11:35:59;36.60;49.90
17607;DHT22;8922;52.240;20.980;2022-07-23T11:38:27;36.60;49.70
17607;DHT22;8922;52.240;20.980;2022-07-23T11:40:58;36.60;50.30
17607;DHT22;8922;52.240;20.980;2022-07-23T11:43:24;36.60;50.40
17607;DHT22;8922;52.240;20.980;2022-07-23T11:45:54;36.50;50.40
17607;DHT22;8922;52.240;20.980;2022-07-23T11:48:25;36.30;50.80
17607;DHT22;8922;52.240;20.980;2022-07-23T11:50:54;36.30;51.10
17607;DHT22;8922;52.240;20.980;2022-07-23T11:53:24;36.20;51.30
17607;DHT22;8922;52.240;20.980;2022-07-23T11:55:51;36.30;51.20
17607;DHT22;8922;52.240;20.980;2022-07-23T11:58:21;36.40;51.00
17607;DHT22;8922;52.240;20.980;2022-07-23T12:00:48;36.50;50.90
17607;DHT22;8922;52.240;20.980;2022-07-23T12:03:16;36.60;50.80
17607;DHT22;8922;52.240;20.980;2022-07-23T12:05:43;36.60;50.40
17607;DHT22;8922;52.240;20.980;2022-07-23T12:08:10;36.50;51.00
17607;DHT22;8922;52.240;20.980;2022-07-23T12:10:38;36.60;51.40
17607;DHT22;8922;52.240;20.980;2022-07-23T12:13:07;36.60;50.50
17607;DHT22;8922;52.240;20.980;2022-07-23T12:15:38;36.70;50.50
17607;DHT22;8922;52.240;20.980;2022-07-23T12:18:07;36.90;50.20
17607;DHT22;8922;52.240;20.980;2022-07-23T12:20:35;37.00;50.10
17607;DHT22;8922;52.240;20.980;2022-07-23T12:23:04;36.90;50.10
17607;DHT22;8922;52.240;20.980;2022-07-23T12:25:36;36.90;50.30
17607;DHT22;8922;52.240;20.980;2022-07-23T12:28:05;37.00;50.10
17607;DHT22;8922;52.240;20.980;2022-07-23T12:30:34;37.00;49.70
17607;DHT22;8922;52.240;20.980;2022-07-23T12:33:06;37.00;49.90
17607;DHT22;8922;52.240;20.980;2022-07-23T12:35:36;36.90;50.00
17607;DHT22;8922;52.240;20.980;2022-07-23T12:38:05;36.80;50.10
17607;DHT22;8922;52.240;20.980;2022-07-23T12:40:34;36.80;49.70
17607;DHT22;8922;52.240;20.980;2022-07-23T12:43:03;36.70;49.40
17607;DHT22;8922;52.240;20.980;2022-07-23T12:45:43;36.60;49.40
17607;DHT22;8922;52.240;20.980;2022-07-23T12:48:18;36.60;49.60
17607;DHT22;8922;52.240;20.980;2022-07-23T12:50:50;36.70;49.60
17607;DHT22;8922;52.240;20.980;2022-07-23T12:53:18;36.70;49.60
17607;DHT22;8922;52.240;20.980;2022-07-23T12:55:47;36.80;49.40
17607;DHT22;8922;52.240;20.980;2022-07-23T12:58:15;36.70;49.40
17607;DHT22;8922;52.240;20.980;2022-07-23T13:03:38;36.90;49.30
17607;DHT22;8922;52.240;20.980;2022-07-23T13:06:08;37.00;49.30
17607;DHT22;8922;52.240;20.980;2022-07-23T13:08:37;37.00;49.00
17607;DHT22;8922;52.240;20.980;2022-07-23T13:11:04;37.00;48.90
17607;DHT22;8922;52.240;20.980;2022-07-23T13:13:34;36.90;48.80
17607;DHT22;8922;52.240;20.980;2022-07-23T13:16:02;36.80;48.70
17607;DHT22;8922;52.240;20.980;2022-07-23T13:18:29;36.80;48.60
17607;DHT22;8922;52.240;20.980;2022-07-23T13:20:58;36.70;48.80
17607;DHT22;8922;52.240;20.980;2022-07-23T13:23:26;36.60;49.10
17607;DHT22;8922;52.240;20.980;2022-07-23T13:25:53;36.40;49.30
17607;DHT22;8922;52.240;20.980;2022-07-23T13:28:21;36.30;49.60
17607;DHT22;8922;52.240;20.980;2022-07-23T13:30:49;36.30;49.20
17607;DHT22;8922;52.240;20.980;2022-07-23T13:33:17;36.10;49.40
17607;DHT22;8922;52.240;20.980;2022-07-23T13:35:44;36.00;49.90
17607;DHT22;8922;52.240;20.980;2022-07-23T13:38:13;35.80;50.20
17607;DHT22;8922;52.240;20.980;2022-07-23T13:40:42;35.70;50.50
17607;DHT22;8922;52.240;20.980;2022-07-23T13:43:10;35.60;50.80
17607;DHT22;8922;52.240;20.980;2022-07-23T13:45:37;35.50;50.60
17607;DHT22;8922;52.240;20.980;2022-07-23T13:48:05;35.40;50.90
17607;DHT22;8922;52.240;20.980;2022-07-23T13:50:33;35.40;51.00
17607;DHT22;8922;52.240;20.980;2022-07-23T13:53:01;35.30;51.20
17607;DHT22;8922;52.240;20.980;2022-07-23T13:55:30;35.20;51.50
17607;DHT22;8922;52.240;20.980;2022-07-23T13:57:57;35.10;51.70
17607;DHT22;8922;52.240;20.980;2022-07-23T14:00:25;34.90;51.20
17607;DHT22;8922;52.240;20.980;2022-07-23T14:02:52;34.80;51.30
17607;DHT22;8922;52.240;20.980;2022-07-23T14:05:19;34.70;51.50
17607;DHT22;8922;52.240;20.980;2022-07-23T14:07:46;34.50;51.50
17607;DHT22;8922;52.240;20.980;2022-07-23T14:10:16;34.30;51.70
17607;DHT22;8922;52.240;20.980;2022-07-23T14:12:44;34.10;51.90
17607;DHT22;8922;52.240;20.980;2022-07-23T14:15:12;33.90;52.00
17607;DHT22;8922;52.240;20.980;2022-07-23T14:17:41;33.70;52.40
17607;DHT22;8922;52.240;20.980;2022-07-23T14:20:09;33.60;52.90
17607;DHT22;8922;52.240;20.980;2022-07-23T14:22:36;33.30;53.10
17607;DHT22;8922;52.240;20.980;2022-07-23T14:25:05;33.10;53.40
17607;DHT22;8922;52.240;20.980;2022-07-23T14:27:32;32.90;53.80
17607;DHT22;8922;52.240;20.980;2022-07-23T14:30:00;32.60;54.00
17607;DHT22;8922;52.240;20.980;2022-07-23T14:32:27;32.40;54.40
17607;DHT22;8922;52.240;20.980;2022-07-23T14:34:54;32.30;55.20
17607;DHT22;8922;52.240;20.980;2022-07-23T14:37:21;32.20;54.90
17607;DHT22;8922;52.240;20.980;2022-07-23T14:39:48;32.20;55.10
17607;DHT22;8922;52.240;20.980;2022-07-23T14:42:15;31.90;58.90
17607;DHT22;8922;52.240;20.980;2022-07-23T14:44:41;31.40;61.40
17607;DHT22;8922;52.240;20.980;2022-07-23T14:47:10;30.90;64.40
17607;DHT22;8922;52.240;20.980;2022-07-23T14:49:37;30.30;67.00
17607;DHT22;8922;52.240;20.980;2022-07-23T14:52:05;29.60;69.60
17607;DHT22;8922;52.240;20.980;2022-07-23T14:54:33;29.00;71.90
17607;DHT22;8922;52.240;20.980;2022-07-23T14:57:01;28.40;74.70
17607;DHT22;8922;52.240;20.980;2022-07-23T14:59:28;27.90;77.00
17607;DHT22;8922;52.240;20.980;2022-07-23T15:01:56;27.30;79.40
17607;DHT22;8922;52.240;20.980;2022-07-23T15:04:25;26.80;83.10
17607;DHT22;8922;52.240;20.980;2022-07-23T15:06:52;26.40;88.20
17607;DHT22;8922;52.240;20.980;2022-07-23T15:09:19;25.90;90.30
17607;DHT22;8922;52.240;20.980;2022-07-23T15:11:46;25.50;91.90
17607;DHT22;8922;52.240;20.980;2022-07-23T15:14:13;25.10;93.40
17607;DHT22;8922;52.240;20.980;2022-07-23T15:16:39;24.80;94.80
17607;DHT22;8922;52.240;20.980;2022-07-23T15:19:06;24.50;96.10
17607;DHT22;8922;52.240;20.980;2022-07-23T15:21:34;24.30;97.20
17607;DHT22;8922;52.240;20.980;2022-07-23T15:24:01;24.00;98.10
17607;DHT22;8922;52.240;20.980;2022-07-23T15:26:29;23.90;99.10
17607;DHT22;8922;52.240;20.980;2022-07-23T15:28:56;23.70;99.90
17607;DHT22;8922;52.240;20.980;2022-07-23T15:31:24;23.60;99.90
17607;DHT22;8922;52.240;20.980;2022-07-23T15:33:51;23.50;99.90
17607;DHT22;8922;52.240;20.980;2022-07-23T15:36:18;23.40;99.90
17607;DHT22;8922;52.240;20.980;2022-07-23T15:38:47;23.20;99.90
17607;DHT22;8922;52.240;20.980;2022-07-23T15:41:14;23.20;99.90